createdAt,value
2022-12-20T00:03:02.657Z,34.83
2022-12-20T00:09:48.308Z,32.60
2022-12-20T00:16:36.446Z,33.60
2022-12-20T00:23:21.823Z,34.28
2022-12-20T00:30:08.989Z,33.47
2022-12-20T00:36:56.995Z,33.30
2022-12-20T00:43:43.485Z,32.30
2022-12-20T00:50:28.999Z,33.22
2022-12-20T00:57:16.953Z,34.13
2022-12-20T01:04:03.302Z,32.95
2022-12-20T01:10:48.844Z,33.28
2022-12-20T01:17:36.890Z,31.95
2022-12-20T01:24:23.685Z,33.08
2022-12-20T01:31:10.931Z,31.08
2022-12-20T01:37:58.908Z,30.63
2022-12-20T01:45:15.053Z,31.38
2022-12-20T01:52:09.021Z,31.35
2022-12-20T01:58:59.766Z,30.10
2022-12-20T02:05:48.286Z,30.73
2022-12-20T02:12:42.629Z,30.73
2022-12-20T02:20:17.709Z,31.17
2022-12-20T02:27:48.025Z,29.70
2022-12-20T02:34:40.077Z,32.15
2022-12-20T02:41:35.079Z,32.30
2022-12-20T02:48:21.922Z,29.88
2022-12-20T02:55:11.373Z,30.27
2022-12-20T03:01:59.653Z,30.13
2022-12-20T03:08:45.490Z,29.85
2022-12-20T03:15:33.615Z,29.58
2022-12-20T03:22:21.056Z,29.83
2022-12-20T03:29:07.343Z,28.08
2022-12-20T03:35:55.377Z,27.63
2022-12-20T03:42:41.844Z,29.60
2022-12-20T04:02:52.526Z,28.13
2022-12-20T04:09:38.219Z,28.00
2022-12-20T04:16:31.415Z,27.17
2022-12-20T04:23:19.612Z,28.48
2022-12-20T04:30:06.554Z,29.90
2022-12-20T04:36:52.292Z,28.30
2022-12-20T04:44:02.225Z,29.05
2022-12-20T04:50:55.321Z,29.40
2022-12-20T05:04:35.287Z,29.02
2022-12-20T05:11:23.205Z,28.87
2022-12-20T05:18:09.947Z,29.08
2022-12-20T05:25:19.888Z,29.45
2022-12-20T05:32:07.628Z,28.63
2022-12-20T05:39:03.668Z,28.90
2022-12-20T05:45:55.334Z,27.40
2022-12-20T05:52:50.900Z,28.67
2022-12-20T05:59:37.904Z,30.17
2022-12-20T06:06:29.127Z,27.88
2022-12-20T06:13:15.158Z,28.40
2022-12-20T06:20:01.020Z,28.38
2022-12-20T06:26:50.301Z,29.00
2022-12-20T06:33:37.079Z,27.50
2022-12-20T06:40:22.713Z,27.83
2022-12-20T06:47:10.875Z,31.15
2022-12-20T06:53:57.062Z,27.55
2022-12-20T07:00:43.070Z,28.95
2022-12-20T07:07:31.105Z,28.23
2022-12-20T07:14:16.496Z,28.73
2022-12-20T07:21:04.372Z,28.67
2022-12-20T07:27:54.005Z,29.38
2022-12-20T07:34:40.770Z,27.75
2022-12-20T07:41:26.223Z,28.02
2022-12-20T07:48:18.110Z,28.77
2022-12-20T07:55:08.783Z,26.83
2022-12-20T08:02:00.709Z,28.15
2022-12-20T08:08:57.594Z,27.63
2022-12-20T08:15:43.205Z,27.23
2022-12-20T08:22:28.741Z,29.55
2022-12-20T08:29:16.933Z,30.08
2022-12-20T08:36:03.762Z,30.85
2022-12-20T08:42:49.261Z,30.48
2022-12-20T08:49:40.053Z,29.95
2022-12-20T08:56:29.481Z,31.60
2022-12-20T09:03:15.424Z,31.30
2022-12-20T09:10:03.503Z,31.77
2022-12-20T09:16:49.278Z,33.50
2022-12-20T09:23:37.144Z,28.40
2022-12-20T09:30:25.301Z,26.77
2022-12-20T09:37:11.306Z,26.58
2022-12-20T09:43:57.018Z,25.27
2022-12-20T09:50:56.678Z,23.70
2022-12-20T09:58:02.045Z,24.90
2022-12-20T10:04:48.029Z,25.30
2022-12-20T10:11:54.442Z,23.17
2022-12-20T10:18:59.062Z,24.40
2022-12-20T10:25:46.141Z,26.33
2022-12-20T10:32:34.244Z,25.17
2022-12-20T10:39:19.732Z,24.15
2022-12-20T10:46:08.857Z,23.85
2022-12-20T10:53:25.531Z,23.08
2022-12-20T11:00:32.013Z,23.47
2022-12-20T11:07:28.832Z,22.00
2022-12-20T11:14:21.560Z,21.45
2022-12-20T11:21:28.060Z,24.38
2022-12-20T11:28:32.434Z,20.75
2022-12-20T11:35:25.888Z,23.15
2022-12-20T11:42:24.562Z,22.23
2022-12-20T11:49:54.773Z,22.40
2022-12-20T11:56:47.147Z,21.58
2022-12-20T12:03:38.448Z,21.27
2022-12-20T12:10:27.989Z,22.58
2022-12-20T12:17:32.115Z,21.13
2022-12-20T12:24:27.611Z,21.70
2022-12-20T12:31:20.185Z,22.40
2022-12-20T12:38:44.528Z,21.15
2022-12-20T12:45:33.371Z,20.50
2022-12-20T12:52:39.991Z,22.40
2022-12-20T12:59:55.256Z,22.77
2022-12-20T13:06:59.432Z,21.77
2022-12-20T13:13:44.882Z,22.40
2022-12-20T13:20:35.199Z,22.90
2022-12-20T13:27:33.803Z,22.02
2022-12-20T13:34:42.242Z,22.73
2022-12-20T13:41:38.094Z,21.73
2022-12-20T13:48:30.985Z,20.90
2022-12-20T13:55:29.199Z,20.95
2022-12-20T14:02:25.492Z,21.75
2022-12-20T14:09:31.740Z,21.53
2022-12-20T14:16:21.184Z,22.10
2022-12-20T14:23:15.545Z,21.10
2022-12-20T14:30:01.001Z,25.52
2022-12-20T14:36:49.021Z,31.48
2022-12-20T14:43:38.911Z,34.40
2022-12-20T14:50:30.737Z,31.45
2022-12-20T14:57:26.904Z,31.55
2022-12-20T15:04:33.026Z,30.37
2022-12-20T15:11:24.236Z,33.33
2022-12-20T15:18:15.390Z,24.50
2022-12-20T15:25:04.001Z,25.83
2022-12-20T15:31:51.444Z,25.63
2022-12-20T15:45:47.379Z,29.40
2022-12-20T15:52:34.041Z,31.58
2022-12-20T16:06:27.735Z,28.33
2022-12-20T16:13:21.204Z,57.75
2022-12-20T16:20:08.862Z,45.92
2022-12-20T16:26:56.915Z,36.83
2022-12-20T16:33:42.360Z,34.47
2022-12-20T16:40:30.360Z,34.35
2022-12-20T16:47:18.765Z,28.75
2022-12-20T16:54:19.430Z,26.42
2022-12-20T17:01:07.046Z,26.92
2022-12-20T17:07:59.753Z,35.80
2022-12-20T17:14:45.309Z,32.65
2022-12-20T17:28:39.699Z,34.08
2022-12-20T17:35:30.684Z,27.13
2022-12-20T17:42:16.886Z,25.35
2022-12-20T17:49:05.040Z,26.13
2022-12-20T17:55:50.378Z,29.30
2022-12-20T18:02:35.917Z,27.77
2022-12-20T18:09:25.176Z,28.13
2022-12-20T18:16:11.892Z,30.25
2022-12-20T18:22:57.355Z,32.83
2022-12-20T18:29:45.670Z,28.23
2022-12-20T18:36:34.648Z,22.92
2022-12-20T18:43:20.210Z,22.00
2022-12-20T18:50:11.996Z,22.27
2022-12-20T18:56:58.564Z,22.13
2022-12-20T19:03:44.351Z,20.23
2022-12-20T19:10:35.262Z,19.67
2022-12-20T19:17:20.622Z,20.38
2022-12-20T19:24:09.806Z,20.00
2022-12-20T19:30:58.580Z,19.33
2022-12-20T19:37:44.043Z,19.05
2022-12-20T19:44:29.504Z,20.55
2022-12-20T19:51:19.663Z,19.73
2022-12-20T19:58:05.041Z,22.48
2022-12-20T20:04:50.390Z,22.88
2022-12-20T20:11:38.451Z,24.02
2022-12-20T20:18:28.241Z,23.50
2022-12-20T20:25:13.998Z,22.70
2022-12-20T20:32:03.372Z,22.30
2022-12-20T20:38:49.906Z,19.02
2022-12-20T20:45:35.572Z,11.95
2022-12-20T20:52:23.868Z,11.88
2022-12-20T20:59:15.155Z,12.73
2022-12-20T21:13:12.051Z,11.13
2022-12-20T21:19:57.564Z,11.00
2022-12-20T21:26:43.197Z,11.75
2022-12-20T21:33:32.248Z,11.95
2022-12-20T21:40:17.903Z,10.85
2022-12-20T21:47:03.472Z,11.68
2022-12-20T21:53:54.126Z,10.93
2022-12-20T22:00:39.578Z,10.95
2022-12-20T22:07:24.990Z,10.30
2022-12-20T22:14:16.200Z,11.32
2022-12-20T22:21:01.963Z,10.50
2022-12-20T22:27:47.345Z,10.80
2022-12-20T22:34:35.450Z,10.05
2022-12-20T22:41:23.736Z,10.85
2022-12-20T22:48:09.479Z,10.98
2022-12-20T22:54:57.622Z,11.07
2022-12-20T23:01:43.232Z,10.93
2022-12-20T23:08:31.336Z,10.65
2022-12-20T23:15:31.942Z,10.85
2022-12-20T23:22:29.814Z,10.48
2022-12-20T23:29:16.141Z,11.07
2022-12-20T23:36:07.788Z,10.80
2022-12-20T23:42:56.553Z,11.30
2022-12-20T23:49:41.943Z,11.30
2022-12-20T23:56:29.959Z,10.18
